Time;durP1;ratioP1;P1;durP2;ratioP2;P2;SDS_P1;SDS_P2;PMS_P1;PMS_P2;Temp;Humidity;BMP_temperature;BMP_pressure;BME280_temperature;BME280_humidity;BME280_pressure;Samples;Min_cycle;Max_cycle;Signal;HPM_P1;HPM_P2
2023/02/16 00:00:36;;;;;;;29.73;16.42;;;8.00;99.90;;;;;;4216001;28;20127;-65
2023/02/16 00:02:37;;;;;;;30.85;16.65;;;8.00;99.90;;;;;;4199154;28;20039;-65
2023/02/16 00:04:37;;;;;;;27.67;15.80;;;7.90;99.90;;;;;;4196649;28;20116;-65
2023/02/16 00:06:38;;;;;;;28.27;15.70;;;8.00;99.90;;;;;;4199990;28;20089;-65
2023/02/16 00:08:39;;;;;;;32.95;16.90;;;7.90;99.90;;;;;;4202972;28;20024;-65
2023/02/16 00:10:40;;;;;;;29.48;16.60;;;7.90;99.90;;;;;;4193922;28;20032;-65
2023/02/16 00:15:00;;;;;;;30.40;16.42;;;7.80;99.90;;;;;;4206944;28;20039;-65
2023/02/16 00:17:01;;;;;;;33.42;16.80;;;7.80;99.90;;;;;;4201208;28;20028;-65
2023/02/16 00:19:12;;;;;;;29.27;16.95;;;7.70;99.90;;;;;;4205159;28;20032;-65
2023/02/16 00:21:13;;;;;;;35.13;17.50;;;7.70;99.90;;;;;;4200142;28;20032;-65
2023/02/16 00:23:14;;;;;;;32.95;17.70;;;7.70;99.90;;;;;;4208795;28;20040;-65
2023/02/16 00:25:15;;;;;;;37.40;18.88;;;7.70;99.90;;;;;;4200687;28;20412;-66
2023/02/16 00:27:17;;;;;;;29.60;16.95;;;7.60;99.90;;;;;;4201648;28;20051;-66
2023/02/16 00:29:26;;;;;;;32.50;17.25;;;7.60;99.90;;;;;;4183672;28;20662;-65
2023/02/16 00:31:31;;;;;;;33.42;16.88;;;7.60;99.90;;;;;;4166540;28;20110;-64
2023/02/16 00:33:32;;;;;;;29.65;17.00;;;7.60;99.90;;;;;;4174680;28;20055;-65
2023/02/16 00:35:32;;;;;;;29.83;16.48;;;7.60;99.90;;;;;;4175305;28;20037;-65
2023/02/16 00:37:33;;;;;;;29.48;16.75;;;7.60;99.90;;;;;;4170409;28;20040;-65
2023/02/16 00:39:35;;;;;;;32.80;17.08;;;7.70;99.90;;;;;;4172167;28;20038;-65
2023/02/16 00:41:50;;;;;;;29.43;16.10;;;7.60;99.90;;;;;;4166744;28;20080;-65
2023/02/16 00:43:53;;;;;;;30.30;16.90;;;7.60;99.90;;;;;;4199974;28;20386;-65
2023/02/16 00:45:55;;;;;;;32.95;16.35;;;7.60;99.90;;;;;;4202534;28;20029;-65
2023/02/16 00:47:55;;;;;;;31.77;16.27;;;7.60;99.90;;;;;;4195857;28;20031;-66
2023/02/16 00:49:56;;;;;;;30.30;16.90;;;7.50;99.90;;;;;;4195669;28;20040;-65
2023/02/16 00:51:57;;;;;;;29.92;17.48;;;7.60;99.90;;;;;;4193496;28;20032;-65
2023/02/16 00:53:58;;;;;;;30.90;16.90;;;7.60;99.90;;;;;;4197787;28;20082;-65
2023/02/16 00:55:58;;;;;;;30.45;16.15;;;7.60;99.90;;;;;;4202695;28;20036;-65
2023/02/16 00:58:13;;;;;;;31.67;18.00;;;7.60;99.90;;;;;;4196347;28;20064;-65
2023/02/16 01:00:25;;;;;;;29.40;15.73;;;7.60;99.90;;;;;;4189775;28;20050;-65
2023/02/16 01:02:26;;;;;;;28.17;16.50;;;7.60;99.90;;;;;;4190411;28;20404;-65
2023/02/16 01:04:27;;;;;;;30.98;16.55;;;7.60;99.90;;;;;;4197326;28;20037;-65
2023/02/16 01:11:08;;;;;;;31.63;17.52;;;7.50;99.90;;;;;;4195203;28;20056;-65
2023/02/16 01:13:10;;;;;;;30.52;15.63;;;7.50;99.90;;;;;;4195891;28;20052;-65
2023/02/16 01:15:14;;;;;;;31.38;16.25;;;7.50;99.90;;;;;;4200232;28;20082;-65
2023/02/16 01:17:14;;;;;;;33.80;16.58;;;7.50;99.90;;;;;;4199356;28;20392;-65
2023/02/16 01:19:15;;;;;;;27.13;15.95;;;7.50;99.90;;;;;;4197229;28;20047;-65
2023/02/16 01:21:16;;;;;;;29.08;16.13;;;7.50;99.90;;;;;;4199974;28;20115;-66
2023/02/16 01:23:16;;;;;;;27.52;15.07;;;7.50;99.90;;;;;;4202299;28;20097;-65
2023/02/16 01:25:17;;;;;;;27.15;15.32;;;7.50;99.90;;;;;;4202656;28;20054;-65
2023/02/16 01:27:18;;;;;;;27.73;16.35;;;7.50;99.90;;;;;;4213633;28;20490;-65
2023/02/16 01:29:20;;;;;;;28.52;16.52;;;7.50;99.90;;;;;;4217255;28;20114;-65
2023/02/16 01:31:21;;;;;;;;;;;7.50;99.90;;;;;;4212795;28;20043;-65
2023/02/16 01:33:21;;;;;;;27.95;14.98;;;7.50;99.90;;;;;;4217447;28;20282;-65
2023/02/16 01:35:31;;;;;;;26.75;15.18;;;7.50;99.90;;;;;;4216273;28;20043;-65
2023/02/16 01:37:32;;;;;;;28.77;15.80;;;7.40;99.90;;;;;;4217605;27;20039;-65
2023/02/16 01:39:33;;;;;;;26.77;15.40;;;7.40;99.90;;;;;;4214779;27;20406;-65
2023/02/16 01:41:58;;;;;;;26.95;15.63;;;7.40;99.90;;;;;;4215940;27;20468;-65
2023/02/16 01:44:03;;;;;;;26.35;14.40;;;7.40;99.90;;;;;;4214302;27;20039;-65
2023/02/16 01:46:13;;;;;;;27.77;15.65;;;7.40;99.90;;;;;;4219576;28;20069;-65
2023/02/16 01:48:22;;;;;;;28.42;15.23;;;7.40;99.90;;;;;;4218788;28;20110;-65
2023/02/16 01:50:25;;;;;;;28.90;15.15;;;7.40;99.90;;;;;;4208847;28;20043;-65
2023/02/16 01:52:40;;;;;;;28.05;15.32;;;7.40;99.90;;;;;;4211485;28;20036;-65
2023/02/16 01:54:52;;;;;;;28.45;15.48;;;7.40;99.90;;;;;;4216167;28;20114;-65
2023/02/16 01:57:03;;;;;;;28.10;16.30;;;7.40;99.90;;;;;;4212457;28;20398;-65
2023/02/16 01:59:15;;;;;;;25.88;14.02;;;7.40;99.90;;;;;;4218605;28;20028;-65
2023/02/16 02:01:43;;;;;;;23.52;14.15;;;7.40;99.90;;;;;;4209213;28;20436;-67
2023/02/16 02:06:03;;;;;;;26.67;13.88;;;7.30;99.90;;;;;;4188486;28;20033;-66
2023/02/16 02:08:10;;;;;;;25.83;13.95;;;7.30;99.90;;;;;;4193842;28;20173;-65
2023/02/16 02:10:16;;;;;;;27.52;14.70;;;7.20;99.90;;;;;;4203779;28;20040;-66
2023/02/16 02:12:33;;;;;;;23.67;13.40;;;7.20;99.90;;;;;;4200900;27;20040;-67
2023/02/16 02:14:39;;;;;;;23.52;14.10;;;7.20;99.90;;;;;;4198889;28;20036;-65
2023/02/16 02:16:39;;;;;;;28.90;15.75;;;7.20;99.90;;;;;;4196618;28;20094;-65
2023/02/16 02:18:40;;;;;;;28.52;16.15;;;7.20;99.90;;;;;;4189317;28;20017;-65
2023/02/16 02:23:32;;;;;;;24.85;14.55;;;7.10;99.90;;;;;;4190751;28;20028;-65
2023/02/16 02:25:53;;;;;;;27.88;14.93;;;7.10;99.90;;;;;;4192224;28;20024;-65
2023/02/16 02:28:26;;;;;;;29.60;14.82;;;7.10;99.90;;;;;;4199528;28;20498;-65
2023/02/16 02:30:52;;;;;;;26.70;15.30;;;7.10;99.90;;;;;;4192347;28;20408;-66
2023/02/16 02:33:09;;;;;;;27.48;15.63;;;7.00;99.90;;;;;;4213431;28;20023;-65
2023/02/16 02:35:31;;;;;;;30.42;16.40;;;7.00;99.90;;;;;;4203814;28;20020;-66
2023/02/16 02:37:45;;;;;;;29.73;16.20;;;6.90;99.90;;;;;;4210027;28;20046;-66
2023/02/16 02:39:54;;;;;;;27.30;14.93;;;6.90;99.90;;;;;;4205656;28;20107;-65
2023/02/16 02:42:08;;;;;;;28.00;15.73;;;6.90;99.90;;;;;;4203936;28;20039;-65
2023/02/16 03:07:48;;;;;;;29.50;15.98;;;6.70;99.90;;;;;;4207828;28;20036;-65
2023/02/16 03:12:43;;;;;;;29.08;15.70;;;6.70;99.90;;;;;;4204443;28;20025;-65
2023/02/16 03:14:43;;;;;;;30.25;16.38;;;6.60;99.90;;;;;;4208758;28;20036;-65
2023/02/16 03:16:48;;;;;;;31.23;16.17;;;6.50;99.90;;;;;;4206310;28;20494;-65
2023/02/16 03:30:31;;;;;;;30.25;16.50;;;6.30;99.90;;;;;;4205175;28;20060;-65
2023/02/16 03:32:32;;;;;;;32.90;16.75;;;6.30;99.90;;;;;;4208271;28;20040;-65
2023/02/16 03:34:35;;;;;;;28.65;16.10;;;6.30;99.90;;;;;;4207561;28;20024;-65
2023/02/16 03:36:38;;;;;;;34.28;17.52;;;6.20;99.90;;;;;;4209943;28;20107;-65
2023/02/16 03:38:39;;;;;;;31.17;16.95;;;6.20;99.90;;;;;;4204939;28;20051;-65
2023/02/16 03:40:41;;;;;;;28.23;15.88;;;6.20;99.90;;;;;;4209166;28;20548;-65
2023/02/16 03:42:51;;;;;;;29.75;16.65;;;6.20;99.90;;;;;;4207964;28;20036;-65
2023/02/16 03:44:52;;;;;;;31.13;17.63;;;6.30;99.90;;;;;;4207724;28;20058;-65
2023/02/16 03:46:53;;;;;;;31.63;17.08;;;6.20;99.90;;;;;;4206411;28;20028;-65
2023/02/16 03:48:53;;;;;;;30.23;15.77;;;6.20;99.90;;;;;;4210942;28;20055;-65
2023/02/16 03:50:54;;;;;;;32.47;18.02;;;6.20;99.90;;;;;;4206842;28;20042;-65
2023/02/16 03:53:08;;;;;;;27.42;16.05;;;6.20;99.90;;;;;;4207688;28;20040;-65
2023/02/16 03:55:08;;;;;;;28.33;15.85;;;6.20;99.90;;;;;;4208868;28;20032;-66
2023/02/16 03:57:09;;;;;;;33.67;16.85;;;6.10;99.90;;;;;;4208208;28;20483;-65
2023/02/16 03:59:09;;;;;;;28.92;17.13;;;6.10;99.90;;;;;;4208909;28;20037;-65
2023/02/16 04:01:10;;;;;;;28.23;16.05;;;6.10;99.90;;;;;;4207277;28;20610;-65
2023/02/16 04:03:11;;;;;;;28.17;16.10;;;6.10;99.90;;;;;;4210016;28;20086;-65
2023/02/16 04:05:12;;;;;;;30.23;16.80;;;6.10;99.90;;;;;;4207738;28;20043;-66
2023/02/16 04:07:12;;;;;;;30.75;16.75;;;6.10;99.90;;;;;;4208058;28;20032;-65
2023/02/16 04:09:13;;;;;;;30.50;16.58;;;6.00;99.90;;;;;;4209376;28;21293;-65
2023/02/16 04:13:33;;;;;;;30.67;17.85;;;6.00;99.90;;;;;;4208379;28;20044;-65
2023/02/16 04:15:34;;;;;;;33.95;17.48;;;6.00;99.90;;;;;;4207660;28;20390;-65
2023/02/16 04:17:35;;;;;;;32.83;16.70;;;5.90;99.90;;;;;;4210680;28;20524;-65
2023/02/16 04:19:36;;;;;;;36.53;19.40;;;5.90;99.90;;;;;;4209724;28;20046;-65
2023/02/16 04:21:36;;;;;;;31.98;17.17;;;5.90;99.90;;;;;;4205197;28;20127;-65
2023/02/16 04:23:37;;;;;;;31.35;17.27;;;5.90;99.90;;;;;;4214174;28;20126;-65
2023/02/16 04:25:37;;;;;;;32.67;18.45;;;5.90;99.90;;;;;;4207409;28;20097;-65
2023/02/16 04:27:38;;;;;;;30.13;17.23;;;5.90;99.90;;;;;;4206782;28;20044;-65
2023/02/16 04:29:39;;;;;;;32.88;18.15;;;5.90;99.90;;;;;;4210755;28;20123;-65
2023/02/16 04:31:39;;;;;;;29.58;17.77;;;5.80;99.90;;;;;;4207279;28;20047;-65
2023/02/16 04:33:40;;;;;;;34.75;18.65;;;5.80;99.90;;;;;;4207435;28;20029;-65
2023/02/16 04:35:41;;;;;;;30.17;18.10;;;5.80;99.90;;;;;;4210276;28;20040;-65
2023/02/16 04:37:41;;;;;;;33.92;17.73;;;5.80;99.90;;;;;;4214632;28;20039;-65
2023/02/16 04:39:42;;;;;;;32.92;17.63;;;5.80;99.90;;;;;;4208957;28;20041;-65
2023/02/16 04:41:42;;;;;;;32.50;18.88;;;5.80;99.90;;;;;;4208662;28;20032;-65
2023/02/16 04:43:43;;;;;;;38.22;20.27;;;5.80;99.90;;;;;;4212652;28;20028;-65
2023/02/16 04:45:43;;;;;;;37.42;18.13;;;5.70;99.90;;;;;;4210851;28;20047;-65
2023/02/16 04:47:44;;;;;;;35.50;19.48;;;5.70;99.90;;;;;;4210171;28;20152;-65
2023/02/16 04:49:46;;;;;;;33.97;19.25;;;5.70;99.90;;;;;;4211570;28;20809;-65
2023/02/16 04:51:47;;;;;;;38.13;20.95;;;5.70;99.90;;;;;;4209232;28;20167;-65
2023/02/16 04:53:48;;;;;;;32.67;19.15;;;5.70;99.90;;;;;;4211459;28;20040;-66
2023/02/16 04:55:48;;;;;;;41.42;20.35;;;5.70;99.90;;;;;;4209789;28;20113;-66
2023/02/16 04:57:49;;;;;;;38.45;20.42;;;5.60;99.90;;;;;;4210955;28;20073;-65
2023/02/16 04:59:50;;;;;;;35.55;20.58;;;5.60;99.90;;;;;;4210866;28;20391;-65
2023/02/16 05:01:50;;;;;;;34.53;19.58;;;5.60;99.90;;;;;;4206864;28;20036;-65
2023/02/16 05:03:51;;;;;;;36.47;20.98;;;5.60;99.90;;;;;;4207568;28;20028;-65
2023/02/16 05:05:52;;;;;;;38.20;21.60;;;5.60;99.90;;;;;;4207178;28;20359;-65
2023/02/16 05:07:52;;;;;;;37.88;21.63;;;5.60;99.90;;;;;;4210220;28;20115;-65
2023/02/16 05:09:53;;;;;;;39.53;21.98;;;5.60;99.90;;;;;;4210954;28;20537;-66
2023/02/16 05:14:41;;;;;;;35.22;20.33;;;5.60;99.90;;;;;;4209543;28;20047;-65
2023/02/16 05:16:43;;;;;;;37.38;21.17;;;5.70;99.90;;;;;;4206847;28;20399;-65
2023/02/16 05:18:43;;;;;;;39.83;21.90;;;5.70;99.90;;;;;;4211592;28;20119;-65
2023/02/16 05:23:05;;;;;;;39.47;22.02;;;5.70;99.90;;;;;;4174913;28;20085;-65
2023/02/16 05:25:06;;;;;;;39.30;21.85;;;5.60;99.90;;;;;;4210338;28;20078;-66
2023/02/16 05:27:11;;;;;;;38.58;21.17;;;5.60;99.90;;;;;;4203884;28;20059;-65
2023/02/16 05:29:11;;;;;;;37.63;20.77;;;5.60;99.90;;;;;;4201238;28;20067;-65
2023/02/16 05:31:12;;;;;;;39.25;21.65;;;5.60;99.90;;;;;;4204304;28;20028;-65
2023/02/16 05:33:12;;;;;;;41.30;22.60;;;5.60;99.90;;;;;;4207242;28;20039;-65
2023/02/16 05:35:13;;;;;;;34.33;19.02;;;5.60;99.90;;;;;;4211023;27;20132;-65
2023/02/16 05:37:15;;;;;;;36.20;20.38;;;5.60;99.90;;;;;;4207832;28;20031;-65
2023/02/16 05:39:16;;;;;;;35.08;21.00;;;5.60;99.90;;;;;;4207182;28;20423;-65
2023/02/16 05:41:22;;;;;;;39.50;21.25;;;5.60;99.90;;;;;;4205227;28;20427;-65
2023/02/16 05:43:23;;;;;;;38.13;21.83;;;5.70;99.90;;;;;;4210725;28;20047;-65
2023/02/16 05:45:23;;;;;;;36.50;19.80;;;5.60;99.90;;;;;;4207451;28;20172;-65
2023/02/16 05:47:24;;;;;;;32.15;19.05;;;5.60;99.90;;;;;;4205051;28;20036;-65
2023/02/16 05:49:25;;;;;;;34.33;20.08;;;5.60;99.90;;;;;;4206821;28;20051;-65
2023/02/16 05:51:26;;;;;;;36.35;19.83;;;5.60;99.90;;;;;;4206848;28;20044;-65
2023/02/16 05:53:26;;;;;;;35.38;19.63;;;5.60;99.90;;;;;;4204911;28;20040;-65
2023/02/16 05:55:27;;;;;;;37.78;19.95;;;5.60;99.90;;;;;;4209035;28;20050;-65
2023/02/16 05:57:27;;;;;;;36.35;19.58;;;5.60;99.90;;;;;;4207171;28;20612;-65
2023/02/16 05:59:28;;;;;;;33.10;18.85;;;5.60;99.90;;;;;;4206422;28;20032;-65
2023/02/16 06:01:29;;;;;;;37.42;19.90;;;5.70;99.90;;;;;;4206540;28;20077;-66
2023/02/16 06:03:29;;;;;;;34.15;19.63;;;5.70;99.90;;;;;;4205648;28;20048;-65
2023/02/16 06:05:30;;;;;;;33.50;18.98;;;5.70;99.90;;;;;;4204233;28;20035;-65
2023/02/16 06:07:31;;;;;;;32.67;19.27;;;5.70;99.90;;;;;;4203280;28;20398;-65
2023/02/16 06:09:31;;;;;;;36.63;19.48;;;5.70;99.90;;;;;;4204942;28;20039;-67
2023/02/16 06:11:35;;;;;;;33.85;18.85;;;5.70;99.90;;;;;;4202116;28;20031;-67
2023/02/16 06:13:35;;;;;;;34.17;19.10;;;5.70;99.90;;;;;;4201376;28;20036;-67
2023/02/16 06:15:36;;;;;;;34.97;19.75;;;5.70;99.90;;;;;;4205381;28;20443;-67
2023/02/16 06:17:37;;;;;;;33.55;18.10;;;5.70;99.90;;;;;;4207533;28;20464;-67
2023/02/16 06:19:37;;;;;;;36.08;19.15;;;5.70;99.90;;;;;;4201808;27;20405;-67
2023/02/16 06:21:39;;;;;;;32.47;18.65;;;5.70;99.90;;;;;;4207042;28;20036;-67
2023/02/16 06:23:39;;;;;;;38.70;21.05;;;5.70;99.90;;;;;;4200591;28;20028;-67
2023/02/16 06:25:47;;;;;;;35.08;18.70;;;5.70;99.90;;;;;;4200298;27;20041;-67
2023/02/16 06:27:48;;;;;;;35.03;18.90;;;5.70;99.90;;;;;;4205256;28;20047;-67
2023/02/16 06:29:49;;;;;;;34.00;19.63;;;5.70;99.90;;;;;;4206312;28;20032;-67
2023/02/16 06:31:49;;;;;;;34.08;19.63;;;5.70;99.90;;;;;;4205393;28;20490;-66
2023/02/16 06:33:51;;;;;;;31.70;18.60;;;5.70;99.90;;;;;;4206265;28;20505;-65
2023/02/16 06:35:52;;;;;;;35.55;18.83;;;5.70;99.90;;;;;;4204375;28;20059;-65
2023/02/16 06:37:53;;;;;;;32.10;19.42;;;5.70;99.90;;;;;;4202255;28;20035;-65
2023/02/16 06:39:53;;;;;;;38.30;20.35;;;5.70;99.90;;;;;;4205166;28;20051;-66
2023/02/16 06:41:54;;;;;;;36.75;20.92;;;5.70;99.90;;;;;;4202482;28;20454;-64
2023/02/16 06:43:54;;;;;;;32.17;19.25;;;5.70;99.90;;;;;;4203073;28;20067;-65
2023/02/16 06:45:55;;;;;;;33.83;18.92;;;5.70;99.90;;;;;;4204190;28;20115;-65
2023/02/16 06:47:55;;;;;;;33.50;18.17;;;5.70;99.90;;;;;;4204662;28;20040;-65
2023/02/16 06:49:56;;;;;;;39.75;20.83;;;5.70;99.90;;;;;;4204986;28;20021;-65
2023/02/16 06:51:56;;;;;;;32.85;19.42;;;5.60;99.90;;;;;;4207058;28;20036;-65
2023/02/16 06:53:57;;;;;;;35.92;19.05;;;5.70;99.90;;;;;;4205098;28;20032;-65
2023/02/16 06:55:58;;;;;;;40.30;19.85;;;5.70;99.90;;;;;;4200656;28;20055;-65
2023/02/16 06:57:58;;;;;;;33.10;18.80;;;5.70;99.90;;;;;;4203933;28;20028;-65
2023/02/16 06:59:59;;;;;;;37.75;20.25;;;5.70;99.90;;;;;;4202945;28;20470;-65
2023/02/16 07:02:00;;;;;;;36.67;20.13;;;5.70;99.90;;;;;;4204667;28;20032;-66
2023/02/16 07:04:00;;;;;;;35.30;19.58;;;5.70;99.90;;;;;;4200679;28;20052;-65
2023/02/16 07:06:01;;;;;;;39.67;20.33;;;5.70;99.90;;;;;;4202998;28;20021;-65
2023/02/16 07:08:01;;;;;;;34.63;19.08;;;5.70;99.90;;;;;;4205103;28;20024;-65
2023/02/16 07:10:03;;;;;;;35.95;20.75;;;5.80;99.90;;;;;;4204880;28;20092;-66
2023/02/16 07:12:04;;;;;;;35.38;19.75;;;5.80;99.90;;;;;;4203645;28;20024;-65
2023/02/16 07:14:04;;;;;;;37.15;20.30;;;5.80;99.90;;;;;;4204772;28;20383;-65
2023/02/16 07:16:06;;;;;;;35.92;20.08;;;5.80;99.90;;;;;;4204682;28;20024;-65
2023/02/16 07:18:07;;;;;;;31.80;18.27;;;5.80;99.90;;;;;;4206279;28;20033;-67
2023/02/16 07:20:10;;;;;;;32.35;19.15;;;5.90;99.90;;;;;;4183256;28;20025;-65
2023/02/16 07:22:11;;;;;;;34.45;19.75;;;5.90;99.90;;;;;;4178314;28;20051;-65
2023/02/16 07:24:11;;;;;;;32.83;18.50;;;5.90;99.90;;;;;;4183910;28;20567;-65
2023/02/16 07:26:12;;;;;;;33.05;19.13;;;5.90;99.90;;;;;;4179677;28;20372;-65
2023/02/16 07:28:13;;;;;;;38.28;20.75;;;5.90;99.90;;;;;;4188180;28;20082;-65
2023/02/16 07:30:15;;;;;;;33.85;19.40;;;5.90;99.90;;;;;;4181169;28;20040;-65
2023/02/16 07:32:15;;;;;;;39.97;21.45;;;5.90;99.90;;;;;;4184198;28;20036;-64
2023/02/16 07:34:16;;;;;;;37.10;20.05;;;5.80;99.90;;;;;;4184232;28;20033;-65
2023/02/16 07:36:17;;;;;;;39.00;21.52;;;5.90;99.90;;;;;;4179608;28;20036;-65
2023/02/16 07:38:17;;;;;;;33.53;19.13;;;5.90;99.90;;;;;;4184500;28;20434;-65
2023/02/16 07:40:18;;;;;;;32.25;19.48;;;5.90;99.90;;;;;;4183457;28;20033;-65
2023/02/16 07:42:19;;;;;;;33.75;19.08;;;5.90;99.90;;;;;;4182380;28;20514;-65
2023/02/16 07:44:20;;;;;;;35.60;19.25;;;6.00;99.90;;;;;;4181988;28;20124;-65
2023/02/16 07:46:20;;;;;;;34.30;20.40;;;6.00;99.90;;;;;;4178544;28;20061;-66
2023/02/16 07:48:21;;;;;;;32.70;18.55;;;6.00;99.90;;;;;;4179903;28;20040;-65
2023/02/16 07:50:22;;;;;;;36.10;19.05;;;6.00;99.90;;;;;;4177857;28;20037;-67
2023/02/16 07:52:27;;;;;;;35.88;19.35;;;6.00;99.90;;;;;;4182234;28;20102;-67
2023/02/16 07:54:30;;;;;;;33.25;18.23;;;6.10;99.90;;;;;;4180397;28;20118;-67
2023/02/16 07:56:33;;;;;;;38.20;20.55;;;6.10;99.90;;;;;;4185734;28;20035;-67
2023/02/16 07:58:33;;;;;;;;;;;6.10;99.90;;;;;;4186014;28;20487;-67
2023/02/16 08:00:35;;;;;;;33.40;19.30;;;6.10;99.90;;;;;;4198678;28;19907;-67
2023/02/16 08:02:35;;;;;;;33.10;19.30;;;6.10;99.90;;;;;;4194637;28;20115;-67
2023/02/16 08:04:36;;;;;;;37.20;19.33;;;6.20;99.90;;;;;;4198644;28;20170;-67
2023/02/16 08:06:36;;;;;;;34.90;19.92;;;6.10;99.90;;;;;;4200154;28;20036;-67
2023/02/16 08:08:38;;;;;;;33.15;19.15;;;6.20;99.90;;;;;;4199561;28;20111;-66
2023/02/16 08:10:39;;;;;;;38.03;20.55;;;6.20;99.90;;;;;;4196591;28;20040;-67
2023/02/16 08:12:40;;;;;;;40.47;21.08;;;6.20;99.90;;;;;;4199477;28;20136;-67
2023/02/16 08:14:40;;;;;;;37.60;20.02;;;6.20;99.90;;;;;;4195714;28;20086;-67
2023/02/16 08:16:41;;;;;;;34.55;19.90;;;6.20;99.90;;;;;;4200171;28;20035;-67
2023/02/16 08:18:42;;;;;;;34.88;19.83;;;6.30;99.90;;;;;;4200071;28;20028;-67
2023/02/16 08:20:43;;;;;;;39.13;21.08;;;6.30;99.90;;;;;;4201097;28;20395;-67
2023/02/16 08:22:44;;;;;;;36.17;20.85;;;6.40;99.90;;;;;;4203391;28;20043;-67
2023/02/16 08:24:44;;;;;;;31.27;18.30;;;6.40;99.90;;;;;;4198680;28;20043;-67
2023/02/16 08:26:48;;;;;;;30.85;18.38;;;6.40;99.90;;;;;;4197071;28;20064;-67
2023/02/16 08:28:49;;;;;;;34.58;19.00;;;6.50;99.90;;;;;;4199741;28;20459;-67
2023/02/16 08:30:50;;;;;;;35.30;19.27;;;6.50;99.90;;;;;;4200450;28;20061;-67
2023/02/16 08:32:52;;;;;;;36.58;20.35;;;6.50;99.90;;;;;;4201551;28;20044;-68
2023/02/16 08:34:52;;;;;;;36.97;20.73;;;6.60;99.90;;;;;;4176012;28;20037;-67
2023/02/16 08:36:55;;;;;;;35.63;20.05;;;6.60;99.90;;;;;;4187183;28;20912;-67
2023/02/16 08:38:56;;;;;;;32.20;19.58;;;6.60;99.90;;;;;;4185108;28;20041;-67
2023/02/16 08:40:56;;;;;;;32.20;19.38;;;6.60;99.90;;;;;;4182273;28;20063;-67
2023/02/16 08:42:57;;;;;;;35.40;20.77;;;6.70;99.90;;;;;;4182458;28;20108;-67
2023/02/16 08:44:58;;;;;;;38.80;21.30;;;6.70;99.90;;;;;;4183445;28;20043;-67
2023/02/16 08:46:59;;;;;;;34.88;20.02;;;6.80;99.90;;;;;;4181376;28;20029;-67
2023/02/16 08:49:00;;;;;;;37.58;21.33;;;6.80;99.90;;;;;;4185430;28;20086;-67
2023/02/16 08:51:02;;;;;;;38.53;21.17;;;6.80;99.90;;;;;;4185453;28;20695;-67
2023/02/16 08:53:03;;;;;;;33.38;20.48;;;6.80;99.90;;;;;;4181087;28;20033;-67
2023/02/16 08:55:04;;;;;;;40.13;21.30;;;6.90;99.90;;;;;;4186742;28;20039;-68
2023/02/16 08:57:05;;;;;;;37.17;20.90;;;7.00;99.90;;;;;;4178573;28;20116;-67
2023/02/16 08:59:05;;;;;;;33.60;19.55;;;6.90;99.90;;;;;;4185008;28;20041;-68
2023/02/16 09:01:07;;;;;;;36.97;20.85;;;7.00;99.90;;;;;;4186259;28;20033;-68
2023/02/16 09:03:08;;;;;;;35.13;20.70;;;7.00;99.90;;;;;;4181082;28;20052;-67
2023/02/16 09:05:08;;;;;;;35.38;19.55;;;7.10;99.90;;;;;;4177840;28;20041;-68
2023/02/16 09:07:09;;;;;;;31.35;18.83;;;7.20;99.90;;;;;;4183927;28;20158;-67
2023/02/16 09:09:11;;;;;;;36.38;20.27;;;7.20;99.90;;;;;;4181279;28;20033;-68
2023/02/16 09:11:14;;;;;;;35.25;19.27;;;7.30;99.90;;;;;;4181394;28;20032;-67
2023/02/16 09:13:15;;;;;;;;;;;7.40;99.90;;;;;;4182507;28;20091;-65
2023/02/16 09:15:15;;;;;;;31.23;17.50;;;7.50;99.90;;;;;;4184719;28;19916;-65
2023/02/16 09:17:16;;;;;;;30.38;17.40;;;7.60;99.90;;;;;;4181939;28;20052;-65
2023/02/16 09:19:19;;;;;;;29.77;18.67;;;7.60;99.90;;;;;;4185522;28;20037;-64
2023/02/16 09:21:24;;;;;;;31.20;18.73;;;7.70;99.90;;;;;;4184367;28;20056;-65
2023/02/16 09:23:24;;;;;;;30.25;18.67;;;7.80;99.90;;;;;;4185199;28;20680;-65
2023/02/16 09:25:25;;;;;;;35.10;19.85;;;7.80;99.90;;;;;;4181938;28;20051;-65
2023/02/16 09:27:26;;;;;;;33.30;19.33;;;7.90;99.90;;;;;;4187897;28;20051;-65
2023/02/16 09:29:26;;;;;;;38.67;19.13;;;7.90;99.90;;;;;;4181846;28;20043;-65
2023/02/16 09:31:30;;;;;;;35.05;19.65;;;8.00;99.90;;;;;;4182611;28;20522;-65
2023/02/16 09:33:30;;;;;;;36.03;19.65;;;8.00;99.90;;;;;;4182943;28;20060;-65
2023/02/16 09:35:31;;;;;;;31.88;18.63;;;8.00;99.90;;;;;;4182883;28;20591;-65
2023/02/16 09:37:32;;;;;;;30.48;17.92;;;8.00;99.90;;;;;;4184218;28;20043;-65
2023/02/16 09:39:32;;;;;;;32.45;18.67;;;8.10;99.90;;;;;;4183265;28;20069;-66
2023/02/16 09:41:43;;;;;;;32.50;18.60;;;8.10;99.90;;;;;;4181998;28;20048;-65
2023/02/16 09:44:08;;;;;;;33.13;19.52;;;8.10;99.90;;;;;;4183775;28;20029;-65
2023/02/16 09:46:12;;;;;;;32.53;17.83;;;8.10;99.90;;;;;;4154867;28;20063;-65
2023/02/16 09:48:37;;;;;;;32.10;17.55;;;8.10;99.90;;;;;;4183800;28;20051;-65
2023/02/16 09:50:38;;;;;;;32.45;19.20;;;8.20;99.90;;;;;;4185869;28;20053;-65
2023/02/16 09:52:50;;;;;;;44.15;18.98;;;8.20;99.90;;;;;;4183006;28;20037;-65
2023/02/16 09:54:54;;;;;;;31.48;17.80;;;8.20;99.90;;;;;;4189276;28;21029;-65
2023/02/16 09:57:12;;;;;;;28.75;17.90;;;8.20;99.90;;;;;;4184772;28;21248;-65
2023/02/16 09:59:47;;;;;;;33.17;18.52;;;8.30;99.90;;;;;;4188869;28;20064;-65
2023/02/16 10:02:09;;;;;;;30.27;17.83;;;8.30;99.90;;;;;;4185219;28;21278;-65
2023/02/16 10:04:37;;;;;;;38.20;18.63;;;8.30;99.90;;;;;;4183117;28;20037;-65
2023/02/16 10:06:46;;;;;;;32.83;18.10;;;8.30;99.90;;;;;;4184307;28;20037;-65
2023/02/16 10:08:56;;;;;;;39.72;19.30;;;8.30;99.90;;;;;;4186926;28;21732;-65
2023/02/16 10:11:37;;;;;;;33.88;18.55;;;8.30;99.90;;;;;;4187008;28;20025;-65
2023/02/16 10:13:48;;;;;;;30.88;18.13;;;8.40;99.90;;;;;;4186092;28;20044;-65
2023/02/16 10:15:50;;;;;;;28.08;16.85;;;8.30;99.90;;;;;;4185066;28;20043;-65
2023/02/16 10:18:15;;;;;;;36.33;18.88;;;8.40;99.90;;;;;;4189974;28;20037;-65
2023/02/16 10:20:39;;;;;;;41.83;19.10;;;8.40;99.90;;;;;;4187265;28;20033;-65
2023/02/16 10:23:10;;;;;;;28.70;17.13;;;8.40;99.90;;;;;;4184948;28;20032;-65
2023/02/16 10:25:12;;;;;;;36.53;18.92;;;8.40;99.90;;;;;;4202584;28;20097;-65
2023/02/16 10:27:15;;;;;;;33.22;19.55;;;8.40;99.90;;;;;;4204189;28;20059;-65
2023/02/16 10:29:19;;;;;;;31.42;18.38;;;8.40;99.90;;;;;;4203153;28;20028;-67
2023/02/16 10:31:42;;;;;;;33.47;19.08;;;8.40;99.90;;;;;;4206058;28;20123;-67
2023/02/16 10:34:32;;;;;;;26.02;16.30;;;8.50;99.90;;;;;;4205595;28;20119;-68
2023/02/16 10:37:04;;;;;;;29.08;16.80;;;8.50;99.90;;;;;;4109579;28;20533;-67
2023/02/16 10:39:12;;;;;;;;;;;8.50;99.90;;;;;;4116361;28;20058;-67
2023/02/16 10:41:36;;;;;;;32.92;18.30;;;8.50;99.90;;;;;;4134077;28;19922;-67
2023/02/16 10:43:52;;;;;;;33.08;19.23;;;8.60;99.90;;;;;;4188389;28;20067;-67
2023/02/16 10:45:58;;;;;;;31.30;18.90;;;8.60;99.90;;;;;;4184825;28;20041;-67
2023/02/16 10:47:59;;;;;;;32.40;20.30;;;8.60;99.90;;;;;;4184365;28;20107;-66
2023/02/16 10:49:59;;;;;;;29.20;17.92;;;8.60;99.90;;;;;;4183969;28;20064;-67
2023/02/16 10:52:01;;;;;;;34.42;19.33;;;8.70;99.90;;;;;;4185691;28;20123;-68
2023/02/16 10:54:17;;;;;;;33.85;19.08;;;8.70;99.90;;;;;;4182104;28;20045;-68
2023/02/16 10:56:31;;;;;;;36.90;19.83;;;8.70;99.90;;;;;;4182765;28;20684;-68
2023/02/16 10:58:38;;;;;;;36.38;20.83;;;8.70;99.90;;;;;;4184266;28;20043;-66
2023/02/16 11:01:02;;;;;;;33.40;19.85;;;8.70;99.90;;;;;;4190002;28;20434;-66
2023/02/16 11:03:09;;;;;;;31.65;19.52;;;8.80;99.90;;;;;;4190791;28;20039;-66
2023/02/16 11:05:25;;;;;;;33.22;19.13;;;8.80;99.90;;;;;;4201643;28;20487;-65
2023/02/16 11:07:28;;;;;;;31.33;18.73;;;8.80;99.90;;;;;;4200928;28;20507;-66
2023/02/16 11:09:29;;;;;;;33.42;19.73;;;8.90;99.90;;;;;;4201076;28;20036;-66
2023/02/16 11:11:37;;;;;;;32.33;18.92;;;8.90;99.90;;;;;;4202018;28;20024;-65
2023/02/16 11:13:38;;;;;;;30.35;18.42;;;8.90;99.90;;;;;;4204661;28;20044;-66
2023/02/16 11:15:38;;;;;;;34.75;19.73;;;8.90;99.90;;;;;;4202941;28;20040;-66
2023/02/16 11:17:58;;;;;;;34.38;19.65;;;9.00;99.90;;;;;;4203352;28;20069;-65
2023/02/16 11:20:05;;;;;;;33.30;20.02;;;9.00;99.90;;;;;;4204723;28;20445;-66
2023/02/16 11:22:08;;;;;;;31.00;18.15;;;9.00;99.90;;;;;;4204390;28;20714;-65
2023/02/16 11:24:18;;;;;;;26.98;16.50;;;9.10;99.90;;;;;;4205912;28;20036;-66
2023/02/16 11:26:23;;;;;;;30.30;18.85;;;9.10;99.90;;;;;;4207836;28;20060;-66
2023/02/16 11:28:31;;;;;;;32.45;19.10;;;9.20;99.90;;;;;;4204174;28;20039;-66
2023/02/16 11:30:40;;;;;;;30.42;18.58;;;9.20;99.90;;;;;;4200592;28;20077;-66
2023/02/16 11:32:40;;;;;;;29.63;18.50;;;9.20;99.90;;;;;;4204923;28;20040;-66
2023/02/16 11:34:51;;;;;;;29.65;18.33;;;9.30;99.90;;;;;;4201589;28;20395;-66
2023/02/16 11:37:00;;;;;;;36.28;19.40;;;9.30;99.90;;;;;;4204519;28;20020;-65